Time;durP1;ratioP1;P1;durP2;ratioP2;P2;SDS_P1;SDS_P2;PMS_P1;PMS_P2;Temp;Humidity;BMP_temperature;BMP_pressure;BME280_temperature;BME280_humidity;BME280_pressure;Samples;Min_cycle;Max_cycle;Signal;HPM_P1;HPM_P2
2023/01/23 00:01:19;;;;;;;0.80;0.80;;;;;;;-4.09;92.53;101517.28;5071650;28;20052;-80
2023/01/23 00:03:46;;;;;;;0.88;0.88;;;;;;;-4.08;92.35;101513.69;5084686;28;20080;-80
2023/01/23 00:06:14;;;;;;;0.80;0.80;;;;;;;-4.06;92.39;101521.53;5091831;28;20040;-80
2023/01/23 00:08:44;;;;;;;0.70;0.70;;;;;;;-4.08;92.41;101513.69;5091920;28;20083;-79
2023/01/23 00:11:16;;;;;;;0.80;0.80;;;;;;;-4.08;92.26;101518.97;5079939;28;20048;-80
2023/01/23 00:13:43;;;;;;;0.82;0.82;;;;;;;-4.04;92.10;101520.50;5071436;28;20066;-80
2023/01/23 00:16:14;;;;;;;0.90;0.90;;;;;;;-4.04;92.45;101520.50;5071582;28;20056;-81
2023/01/23 00:18:41;;;;;;;0.60;0.60;;;;;;;-4.04;92.47;101515.22;5070500;28;20162;-80
2023/01/23 00:21:11;;;;;;;0.80;0.80;;;;;;;-4.03;92.54;101514.28;5071125;28;20426;-79
2023/01/23 00:23:41;;;;;;;0.68;0.68;;;;;;;-4.04;92.38;101511.75;5070925;28;20068;-80
2023/01/23 00:26:11;;;;;;;0.85;0.85;;;;;;;-4.06;92.48;101517.09;5071289;28;20063;-80
2023/01/23 00:28:39;;;;;;;0.70;0.70;;;;;;;-4.08;92.50;101520.75;5071214;28;20048;-80
2023/01/23 00:31:09;;;;;;;0.88;0.88;;;;;;;-4.08;92.59;101518.97;5071007;28;20044;-80
2023/01/23 00:33:36;;;;;;;0.80;0.80;;;;;;;-4.10;92.61;101512.06;5071403;28;20082;-79
2023/01/23 00:36:03;;;;;;;0.75;0.75;;;;;;;-4.08;92.63;101526.88;5071581;28;20048;-79
2023/01/23 00:38:31;;;;;;;0.80;0.80;;;;;;;-4.09;92.62;101517.28;5053259;28;20499;-81
2023/01/23 00:40:59;;;;;;;0.90;0.90;;;;;;;-4.06;92.56;101522.38;5053430;28;20102;-79
2023/01/23 00:43:26;;;;;;;0.80;0.80;;;;;;;-4.07;92.45;101525.97;5086550;28;20057;-81
2023/01/23 00:45:53;;;;;;;0.63;0.63;;;;;;;-4.25;92.50;101525.22;5053544;28;20071;-80
2023/01/23 00:48:20;;;;;;;0.70;0.70;;;;;;;-4.28;92.74;101525.41;5069441;28;20074;-80
2023/01/23 00:50:47;;;;;;;0.70;0.70;;;;;;;-4.26;92.84;101520.03;5053110;28;20040;-80
2023/01/23 00:53:15;;;;;;;0.70;0.70;;;;;;;-4.24;93.32;101528.72;5036859;28;20498;-81
2023/01/23 00:55:43;;;;;;;0.82;0.82;;;;;;;-4.26;93.12;101523.50;5053549;28;20036;-79
2023/01/23 00:58:10;;;;;;;0.70;0.70;;;;;;;-4.22;93.32;101526.84;5036444;28;20094;-80
2023/01/23 01:00:38;;;;;;;0.90;0.90;;;;;;;-4.24;93.29;101531.34;5036522;28;20040;-80
2023/01/23 01:03:05;;;;;;;0.70;0.70;;;;;;;-4.21;93.38;101529.38;5019992;28;20109;-80
2023/01/23 01:05:34;;;;;;;0.73;0.73;;;;;;;-4.19;93.05;101529.28;5037312;28;20079;-79
2023/01/23 01:08:03;;;;;;;0.70;0.70;;;;;;;-4.19;93.38;101529.28;5069907;28;20044;-80
2023/01/23 01:10:31;;;;;;;0.55;0.55;;;;;;;-4.10;93.28;101541.09;5036806;28;20583;-80
2023/01/23 01:13:00;;;;;;;0.60;0.60;;;;;;;-4.07;92.88;101540.94;5036357;28;20563;-79
2023/01/23 01:15:28;;;;;;;0.70;0.70;;;;;;;-4.03;93.03;101539.81;5052469;28;20594;-81
2023/01/23 01:17:58;;;;;;;0.63;0.63;;;;;;;-4.05;92.66;101539.03;5036519;28;20704;-80
2023/01/23 01:20:27;;;;;;;0.80;0.80;;;;;;;-4.06;92.60;101547.91;5020265;28;20146;-80
2023/01/23 01:22:56;;;;;;;0.70;0.70;;;;;;;-4.09;92.57;101551.56;5036340;28;20098;-80
2023/01/23 01:25:24;;;;;;;0.70;0.70;;;;;;;-4.09;92.36;101548.94;5035910;28;20139;-80
2023/01/23 01:27:54;;;;;;;0.80;0.80;;;;;;;-4.14;92.35;101548.34;5032956;28;20048;-80
2023/01/23 01:30:24;;;;;;;0.70;0.70;;;;;;;-4.11;92.15;101550.81;5048983;28;20469;-79
2023/01/23 01:32:52;;;;;;;0.57;0.57;;;;;;;-4.13;91.97;101547.41;5049127;28;20052;-80
2023/01/23 01:35:20;;;;;;;0.80;0.80;;;;;;;-4.15;91.76;101546.66;5048281;28;20422;-80
2023/01/23 01:37:47;;;;;;;0.80;0.80;;;;;;;-4.18;91.93;101544.16;5049226;28;20091;-79
2023/01/23 01:40:21;;;;;;;0.98;0.98;;;;;;;-4.21;91.56;101544.34;5049985;28;20076;-80
2023/01/23 01:42:53;;;;;;;0.70;0.70;;;;;;;-4.26;91.73;101538.50;5049138;28;20092;-80
2023/01/23 01:45:58;;;;;;;0.70;0.70;;;;;;;-4.21;91.92;101547.81;5032347;28;20041;-80
2023/01/23 01:48:45;;;;;;;0.70;0.70;;;;;;;-4.18;91.93;101545.03;5050191;28;20885;-80
2023/01/23 01:51:20;;;;;;;0.80;0.80;;;;;;;-4.18;91.76;101549.44;5032407;28;20099;-81
2023/01/23 01:53:54;;;;;;;0.80;0.80;;;;;;;-4.26;91.66;101541.97;5049432;28;20136;-80
2023/01/23 01:56:22;;;;;;;0.57;0.57;;;;;;;-4.24;91.73;101549.81;5062238;28;20510;-80
2023/01/23 01:58:51;;;;;;;0.73;0.73;;;;;;;-4.25;91.73;101546.31;5069153;28;20098;-80
2023/01/23 02:01:18;;;;;;;0.73;0.73;;;;;;;-4.20;91.77;101546.91;5068719;28;20147;-80
2023/01/23 02:03:48;;;;;;;0.70;0.70;;;;;;;-4.24;91.68;101542.75;5065607;28;20045;-80
2023/01/23 02:06:16;;;;;;;0.70;0.70;;;;;;;-4.27;91.63;101556.09;5050338;28;20103;-80
2023/01/23 02:08:51;;;;;;;0.70;0.70;;;;;;;-4.25;91.63;101546.31;5049064;28;20569;-81
2023/01/23 02:11:18;;;;;;;0.73;0.73;;;;;;;-4.33;91.13;101540.59;5048586;28;20041;-81
2023/01/23 02:13:47;;;;;;;0.80;0.80;;;;;;;-4.44;91.30;101537.75;5053290;28;20127;-79
2023/01/23 02:16:20;;;;;;;0.70;0.70;;;;;;;-4.41;90.69;101548.94;5068849;28;20131;-80
2023/01/23 02:18:49;;;;;;;0.70;0.70;;;;;;;-4.38;90.61;101548.81;5052449;28;20048;-80
2023/01/23 02:21:19;;;;;;;0.80;0.80;;;;;;;-4.36;90.56;101543.44;5068267;28;20503;-80
2023/01/23 02:24:07;;;;;;;0.60;0.60;;;;;;;-4.32;90.23;101541.50;5036219;28;20054;-80
2023/01/23 02:26:37;;;;;;;0.70;0.70;;;;;;;-4.32;90.06;101542.31;5068677;28;20056;-80
2023/01/23 02:29:06;;;;;;;0.80;0.80;;;;;;;-4.46;90.33;101537.81;5052230;28;20140;-81
2023/01/23 02:31:44;;;;;;;0.60;0.60;;;;;;;-4.46;90.45;101545.72;5053569;28;20056;-81
2023/01/23 02:34:13;;;;;;;0.57;0.57;;;;;;;-4.42;90.55;101544.63;5085301;28;20098;-80
2023/01/23 02:36:44;;;;;;;0.75;0.75;;;;;;;-4.43;90.43;101536.78;5068792;28;20392;-79
2023/01/23 02:39:13;;;;;;;0.50;0.50;;;;;;;-4.44;90.24;101543.84;5068437;28;20143;-79
2023/01/23 02:41:43;;;;;;;0.60;0.60;;;;;;;-4.43;90.32;101537.66;5069658;28;20159;-79
2023/01/23 02:44:15;;;;;;;0.75;0.75;;;;;;;-4.44;90.55;101543.00;5068354;28;20094;-81
2023/01/23 02:46:46;;;;;;;0.80;0.80;;;;;;;-4.42;90.36;101536.72;5053357;28;20045;-80
2023/01/23 02:49:14;;;;;;;0.73;0.73;;;;;;;-4.48;90.31;101542.34;5055665;28;20503;-80
2023/01/23 02:51:41;;;;;;;0.70;0.70;;;;;;;-4.49;90.13;101535.34;5072526;28;20052;-80
2023/01/23 02:54:08;;;;;;;0.68;0.68;;;;;;;-4.52;90.27;101535.53;5071993;28;20135;-81
2023/01/23 02:56:36;;;;;;;0.70;0.70;;;;;;;-4.44;90.33;101546.50;5072058;28;20050;-80
2023/01/23 03:01:50;;;;;;;0.82;0.82;;;;;;;-4.39;90.07;101546.25;5051664;28;20064;-80
2023/01/23 03:04:17;;;;;;;0.90;0.90;;;;;;;-4.44;90.08;101545.66;5051389;28;20037;-80
2023/01/23 03:06:44;;;;;;;0.70;0.70;;;;;;;-4.50;90.03;101554.75;5052958;28;20049;-80
2023/01/23 03:09:15;;;;;;;0.65;0.65;;;;;;;-4.49;89.90;101551.16;5051381;28;20494;-80
2023/01/23 03:11:43;;;;;;;0.60;0.60;;;;;;;-4.50;90.07;101548.63;5052944;28;20045;-80
2023/01/23 03:14:17;;;;;;;0.70;0.70;;;;;;;-4.58;89.85;101547.28;5058125;28;20067;-81
2023/01/23 03:16:52;;;;;;;0.90;0.90;;;;;;;-4.52;89.97;101553.13;5071643;28;20048;-81
2023/01/23 03:19:23;;;;;;;0.68;0.68;;;;;;;-4.56;89.95;101552.44;5072912;28;20047;-81
2023/01/23 03:21:50;;;;;;;0.80;0.80;;;;;;;-4.51;89.83;101554.81;5038083;28;20574;-81
2023/01/23 03:24:18;;;;;;;0.95;0.95;;;;;;;-4.53;89.55;101554.06;5072624;28;20860;-80
2023/01/23 03:26:47;;;;;;;0.80;0.80;;;;;;;-4.49;89.52;101556.44;5073064;28;20062;-80
2023/01/23 03:32:05;;;;;;;0.82;0.82;;;;;;;-4.58;89.14;101557.81;5071203;28;20507;-81
2023/01/23 03:34:32;;;;;;;1.02;1.02;;;;;;;-4.59;88.95;101552.63;5054427;28;20044;-81
2023/01/23 03:37:00;;;;;;;0.88;0.88;;;;;;;-4.52;88.90;101545.22;5072191;28;20044;-80
2023/01/23 03:42:19;;;;;;;0.80;0.80;;;;;;;-4.52;88.93;101551.34;5071456;28;20075;-79
2023/01/23 03:44:48;;;;;;;0.82;0.82;;;;;;;-4.48;88.76;101546.75;5054378;28;20045;-81
2023/01/23 03:47:16;;;;;;;0.75;0.75;;;;;;;-4.48;88.47;101547.63;5071208;28;20106;-81
2023/01/23 03:49:43;;;;;;;1.05;1.05;;;;;;;-4.44;88.72;101549.13;5092481;28;20052;-81
2023/01/23 03:52:10;;;;;;;0.80;0.80;;;;;;;-4.46;88.89;101556.25;5090679;28;20044;-81
2023/01/23 03:54:37;;;;;;;0.88;0.88;;;;;;;-4.51;88.27;101553.03;5090761;28;20048;-81
2023/01/23 03:57:07;;;;;;;0.90;0.90;;;;;;;-4.56;88.48;101565.63;5067724;28;20048;-80
2023/01/23 03:59:47;;;;;;;0.85;0.85;;;;;;;-4.58;88.62;101562.25;5050819;28;20823;-80
2023/01/23 04:02:18;;;;;;;0.70;0.70;;;;;;;-4.56;88.79;101549.81;5050202;28;20074;-80
2023/01/23 04:04:45;;;;;;;0.70;0.70;;;;;;;-4.52;88.66;101548.72;5062911;28;20056;-80
2023/01/23 04:07:12;;;;;;;0.80;0.80;;;;;;;-4.51;88.75;101553.03;5067541;28;20067;-81
2023/01/23 04:09:41;;;;;;;0.65;0.65;;;;;;;-4.51;88.51;101557.47;5070390;28;20076;-82
2023/01/23 04:12:08;;;;;;;0.68;0.68;;;;;;;-4.56;88.60;101560.34;5053930;28;20072;-81
2023/01/23 04:14:39;;;;;;;0.60;0.60;;;;;;;-4.59;88.65;101560.53;5067650;28;20056;-82
2023/01/23 04:17:07;;;;;;;0.77;0.77;;;;;;;-4.58;88.72;101571.00;5071664;28;20053;-84
2023/01/23 04:19:34;;;;;;;0.60;0.60;;;;;;;-4.54;88.64;101566.41;5075184;28;20116;-83
2023/01/23 04:22:01;;;;;;;0.65;0.65;;;;;;;-4.50;88.72;101562.66;5068071;28;20060;-79
2023/01/23 04:24:33;;;;;;;0.50;0.50;;;;;;;-4.58;88.57;101556.97;5072385;28;20041;-82
2023/01/23 04:27:00;;;;;;;0.85;0.85;;;;;;;-4.61;88.58;101555.34;5082215;28;20506;-83
2023/01/23 04:29:28;;;;;;;0.80;0.80;;;;;;;-4.62;88.48;101556.28;5077738;28;20071;-82
2023/01/23 04:31:55;;;;;;;0.95;0.95;;;;;;;-4.62;88.55;101556.28;5052020;28;20159;-82
2023/01/23 04:34:24;;;;;;;0.70;0.70;;;;;;;-4.61;88.81;101563.25;5071274;28;20053;-81
2023/01/23 04:36:53;;;;;;;0.70;0.70;;;;;;;-4.63;88.52;101565.13;5056583;28;20087;-79
2023/01/23 04:39:22;;;;;;;0.80;0.80;;;;;;;-4.70;88.41;101565.53;5020444;28;20062;-80
2023/01/23 04:41:49;;;;;;;0.60;0.60;;;;;;;-4.67;88.37;101568.84;5036567;28;20082;-81
2023/01/23 04:44:35;;;;;;;0.60;0.60;;;;;;;-4.62;88.40;101571.25;5064275;28;20052;-81
2023/01/23 04:47:24;;;;;;;0.70;0.70;;;;;;;-4.59;88.17;101585.09;5008450;28;20060;-80
2023/01/23 04:49:52;;;;;;;0.80;0.80;;;;;;;-4.66;88.23;101580.25;4659920;28;9999728;-79
2023/01/23 04:52:19;;;;;;;0.60;0.60;;;;;;;-4.67;88.17;101582.03;5000807;28;20062;-79
2023/01/23 04:54:55;;;;;;;0.70;0.70;;;;;;;-4.63;88.04;101590.63;4999573;28;20050;-79
2023/01/23 04:57:22;;;;;;;0.60;0.60;;;;;;;-4.63;87.74;101585.38;4995168;28;20096;-79
2023/01/23 04:59:55;;;;;;;0.80;0.80;;;;;;;-4.71;87.62;101588.41;4976141;28;20369;-78
2023/01/23 05:02:26;;;;;;;0.80;0.80;;;;;;;-4.70;87.89;101578.72;4972309;28;20054;-79
2023/01/23 05:04:53;;;;;;;0.80;0.80;;;;;;;-4.69;87.66;101578.63;4987506;28;20054;-78
2023/01/23 05:07:20;;;;;;;0.75;0.75;;;;;;;-4.69;87.64;101585.69;5008781;28;20504;-81
2023/01/23 05:10:03;;;;;;;0.77;0.77;;;;;;;-4.72;87.40;101585.84;5006369;28;20069;-80
2023/01/23 05:12:30;;;;;;;0.98;0.98;;;;;;;-4.76;87.46;101595.72;5010401;28;20049;-78
2023/01/23 05:14:58;;;;;;;0.80;0.80;;;;;;;-4.77;87.38;101588.72;4997771;28;20042;-80
2023/01/23 05:17:25;;;;;;;0.75;0.75;;;;;;;-4.74;87.54;101595.63;4987966;28;20058;-81
2023/01/23 05:19:53;;;;;;;0.60;0.60;;;;;;;-4.75;87.54;101592.13;4971886;28;20053;-79
2023/01/23 05:22:21;;;;;;;0.77;0.77;;;;;;;-4.69;87.47;101604.13;4988470;28;20145;-79
2023/01/23 05:24:49;;;;;;;0.90;0.90;;;;;;;-4.67;87.46;101604.91;5025828;28;20071;-79
2023/01/23 05:27:16;;;;;;;0.80;0.80;;;;;;;-4.65;87.42;101606.53;5055284;28;20052;-81
2023/01/23 05:29:46;;;;;;;1.00;1.00;;;;;;;-4.65;87.13;101617.06;5068776;28;20083;-80
2023/01/23 05:32:19;;;;;;;0.80;0.80;;;;;;;-4.67;87.03;101608.38;5036340;28;20049;-80
2023/01/23 05:35:19;;;;;;;0.90;0.90;;;;;;;-4.65;87.18;101608.31;5069325;28;20102;-80
2023/01/23 05:37:50;;;;;;;0.63;0.63;;;;;;;-4.64;86.93;101621.38;5068571;28;20419;-80
2023/01/23 05:40:21;;;;;;;1.00;1.00;;;;;;;-4.68;86.93;101613.75;5068198;28;20139;-80
2023/01/23 05:43:12;;;;;;;0.80;0.80;;;;;;;-4.62;87.05;101624.78;5068503;28;20699;-80
2023/01/23 05:46:00;;;;;;;0.88;0.88;;;;;;;-4.63;86.91;101625.75;5069000;28;20052;-79
2023/01/23 05:48:49;;;;;;;0.80;0.80;;;;;;;-4.66;86.79;101619.75;5085504;28;20051;-81
2023/01/23 05:51:18;;;;;;;0.80;0.80;;;;;;;-4.63;86.98;101638.06;5068149;28;20082;-80
2023/01/23 05:53:46;;;;;;;0.77;0.77;;;;;;;-4.70;86.81;101632.28;5068790;28;20434;-80
2023/01/23 05:56:14;;;;;;;0.93;0.93;;;;;;;-4.62;87.16;101634.50;5069863;28;20105;-79
2023/01/23 05:59:02;;;;;;;0.70;0.70;;;;;;;-4.64;87.19;101644.25;5069713;28;20476;-80
2023/01/23 06:01:42;;;;;;;0.90;0.90;;;;;;;-4.69;86.88;101638.38;5068807;28;20056;-79
2023/01/23 06:04:27;;;;;;;0.65;0.65;;;;;;;-4.73;86.75;101650.88;5069480;28;20047;-80
2023/01/23 06:07:20;;;;;;;0.68;0.68;;;;;;;-4.76;86.70;101643.16;5062589;28;20060;-79
2023/01/23 06:09:51;;;;;;;0.63;0.63;;;;;;;-4.79;86.64;101648.56;5068723;28;20114;-82
2023/01/23 06:12:18;;;;;;;0.70;0.70;;;;;;;-4.82;86.79;101649.56;5068346;28;20511;-81
2023/01/23 06:14:46;;;;;;;0.88;0.88;;;;;;;-4.89;86.86;101649.97;5052074;28;20420;-79
2023/01/23 06:17:14;;;;;;;0.70;0.70;;;;;;;-4.90;87.00;101630.69;5068321;28;20048;-79
2023/01/23 06:19:41;;;;;;;0.60;0.60;;;;;;;-5.04;86.78;101649.88;5068226;28;20063;-80
2023/01/23 06:22:10;;;;;;;0.60;0.60;;;;;;;-5.05;87.12;101652.56;5069662;28;20061;-80
2023/01/23 06:24:55;;;;;;;0.77;0.77;;;;;;;-5.05;87.33;101653.41;5072667;28;20110;-79
2023/01/23 06:27:22;;;;;;;0.80;0.80;;;;;;;-5.08;87.41;101656.22;5071878;28;20060;-79
2023/01/23 06:29:50;;;;;;;0.90;0.90;;;;;;;-5.10;87.42;101655.44;5072668;28;20052;-81
2023/01/23 06:32:17;;;;;;;0.70;0.70;;;;;;;-5.05;87.69;101649.94;5055809;28;20487;-79
2023/01/23 06:34:55;;;;;;;0.73;0.73;;;;;;;-5.02;87.64;101655.88;5072607;28;20048;-80
2023/01/23 06:37:23;;;;;;;0.60;0.60;;;;;;;-5.01;87.78;101656.75;5073040;28;20507;-80
2023/01/23 06:39:50;;;;;;;0.60;0.60;;;;;;;-4.97;87.69;101649.53;5073535;28;20060;-80
2023/01/23 06:42:19;;;;;;;0.68;0.68;;;;;;;-4.96;87.82;101659.13;5072236;28;20067;-81
2023/01/23 06:44:48;;;;;;;0.80;0.80;;;;;;;-4.94;87.91;101660.75;5072374;28;20083;-80
2023/01/23 06:47:17;;;;;;;0.60;0.60;;;;;;;-4.91;88.13;101665.88;5055432;28;20127;-80
2023/01/23 06:49:52;;;;;;;0.70;0.70;;;;;;;-4.92;88.12;101665.94;5073138;28;20052;-80
2023/01/23 06:52:19;;;;;;;0.90;0.90;;;;;;;-4.88;87.87;101667.50;5055464;28;20506;-80
2023/01/23 06:54:46;;;;;;;0.70;0.70;;;;;;;-4.90;88.02;101658.81;5072018;28;20044;-80
2023/01/23 06:57:15;;;;;;;0.70;0.70;;;;;;;-4.90;87.91;101661.47;5071316;28;20506;-79
2023/01/23 06:59:44;;;;;;;0.70;0.70;;;;;;;-4.91;88.18;101663.25;5071035;28;20056;-80
2023/01/23 07:02:13;;;;;;;0.60;0.60;;;;;;;-4.84;87.96;101661.97;5071695;28;20044;-79
2023/01/23 07:04:50;;;;;;;0.82;0.82;;;;;;;-4.82;87.87;101664.53;5071969;28;20041;-80
2023/01/23 07:07:17;;;;;;;0.70;0.70;;;;;;;-4.83;87.67;101658.41;5073313;28;20083;-79
2023/01/23 07:09:47;;;;;;;0.80;0.80;;;;;;;-4.84;87.56;101666.38;5072344;28;20059;-80
2023/01/23 07:12:19;;;;;;;0.68;0.68;;;;;;;-4.94;87.35;101655.47;5055038;28;20501;-80
2023/01/23 07:14:47;;;;;;;0.68;0.68;;;;;;;-5.01;87.02;101667.28;5061136;28;20088;-80
2023/01/23 07:17:18;;;;;;;0.70;0.70;;;;;;;-5.02;87.17;101660.28;5051089;28;20124;-78
2023/01/23 07:19:46;;;;;;;0.70;0.70;;;;;;;-4.94;87.58;101666.00;5051258;28;20134;-80
2023/01/23 07:22:17;;;;;;;0.70;0.70;;;;;;;-4.95;87.51;101671.38;5050857;28;20053;-81
2023/01/23 07:24:44;;;;;;;0.60;0.60;;;;;;;-4.94;87.54;101666.00;5053006;28;20056;-81
2023/01/23 07:27:11;;;;;;;0.75;0.75;;;;;;;-4.91;87.58;101671.16;5074388;28;20103;-79
2023/01/23 07:29:38;;;;;;;0.60;0.60;;;;;;;-4.84;87.73;101667.22;5072360;28;20044;-79
2023/01/23 07:32:05;;;;;;;0.90;0.90;;;;;;;-4.83;87.60;101676.84;5073182;28;20383;-79
2023/01/23 07:34:35;;;;;;;0.90;0.90;;;;;;;-4.85;87.68;101673.44;5072643;28;20048;-79
2023/01/23 07:37:02;;;;;;;0.70;0.70;;;;;;;-4.84;87.54;101655.84;5072911;28;20052;-80
2023/01/23 07:39:29;;;;;;;0.75;0.75;;;;;;;-4.93;87.42;101675.63;5072512;28;20052;-79
2023/01/23 07:41:56;;;;;;;0.70;0.70;;;;;;;-5.00;87.16;101674.25;5088039;28;20525;-79
2023/01/23 07:44:26;;;;;;;1.33;1.25;;;;;;;-4.96;87.50;101678.44;5071849;28;20522;-80
2023/01/23 07:46:53;;;;;;;0.60;0.60;;;;;;;-4.92;87.38;101676.47;5072597;28;20079;-79
2023/01/23 07:49:21;;;;;;;0.85;0.85;;;;;;;-4.90;87.31;101677.25;5072097;28;20045;-81
2023/01/23 07:51:48;;;;;;;0.70;0.70;;;;;;;-4.98;87.25;101685.56;5070815;28;20503;-80
2023/01/23 07:54:15;;;;;;;0.80;0.80;;;;;;;-4.94;87.44;101680.97;5071795;28;20059;-80
2023/01/23 07:56:42;;;;;;;0.80;0.80;;;;;;;-4.93;87.36;101678.28;5070902;28;20052;-80
2023/01/23 07:59:11;;;;;;;0.90;0.90;;;;;;;-4.98;86.94;101669.75;5071660;28;20044;-80
2023/01/23 08:01:38;;;;;;;0.73;0.73;;;;;;;-5.07;86.68;101681.59;5072017;28;20151;-80
2023/01/23 08:04:05;;;;;;;0.70;0.70;;;;;;;-5.02;86.97;101684.00;5071992;28;20044;-80
2023/01/23 08:06:33;;;;;;;1.20;1.10;;;;;;;-5.04;86.74;101691.13;5087978;28;20052;-81
2023/01/23 08:09:00;;;;;;;0.70;0.70;;;;;;;-5.04;86.74;101691.13;5070844;28;20418;-79
2023/01/23 08:11:27;;;;;;;0.90;0.90;;;;;;;-5.05;86.44;101677.09;5070902;28;20103;-81
2023/01/23 08:13:54;;;;;;;0.80;0.80;;;;;;;-5.17;86.30;101688.25;5066966;28;20045;-81
2023/01/23 08:16:22;;;;;;;0.85;0.85;;;;;;;-5.18;86.49;101693.63;5051589;28;20055;-80
2023/01/23 08:18:49;;;;;;;0.80;0.80;;;;;;;-5.14;86.67;101690.75;5052001;28;20048;-80
2023/01/23 08:21:16;;;;;;;0.98;0.98;;;;;;;-5.05;86.66;101687.66;5066778;28;20139;-81
2023/01/23 08:23:45;;;;;;;0.70;0.70;;;;;;;-5.09;86.39;101679.97;5051764;28;20415;-80
2023/01/23 08:26:14;;;;;;;0.63;0.63;;;;;;;-5.03;86.39;101687.56;5049897;28;20072;-80
2023/01/23 08:28:41;;;;;;;0.68;0.68;;;;;;;-5.06;86.09;101685.09;5070575;28;20560;-79
2023/01/23 08:31:10;;;;;;;0.90;0.90;;;;;;;-5.03;86.21;101692.84;5071693;28;20054;-79
2023/01/23 08:33:39;;;;;;;0.80;0.80;;;;;;;-4.98;86.04;101688.19;5082926;28;20116;-79
2023/01/23 08:36:08;;;;;;;0.85;0.85;;;;;;;-5.11;85.64;101684.50;5091171;28;20070;-80
2023/01/23 08:38:37;;;;;;;0.90;0.90;;;;;;;-5.23;85.46;101691.22;5071215;28;20094;-80
2023/01/23 08:41:05;;;;;;;0.75;0.75;;;;;;;-5.23;85.64;101684.16;5069980;28;20048;-80
2023/01/23 08:43:32;;;;;;;0.70;0.70;;;;;;;-5.27;85.75;101665.97;5069646;28;20134;-79
2023/01/23 08:45:59;;;;;;;0.70;0.70;;;;;;;-5.27;85.74;101681.75;5070123;28;20045;-80
2023/01/23 08:48:27;;;;;;;0.70;0.70;;;;;;;-5.16;85.99;101678.59;5070775;28;20052;-80
2023/01/23 08:51:04;;;;;;;0.50;0.50;;;;;;;-5.16;85.98;101689.13;5070527;28;20110;-80
2023/01/23 08:53:32;;;;;;;0.73;0.73;;;;;;;-5.17;85.75;101695.31;5070676;28;20070;-79
2023/01/23 08:56:05;;;;;;;0.80;0.80;;;;;;;-5.13;85.96;101687.19;5070978;28;20396;-80
2023/01/23 08:58:32;;;;;;;0.70;0.70;;;;;;;-5.07;85.84;101693.91;5070701;28;20495;-80
2023/01/23 09:01:00;;;;;;;0.70;0.70;;;;;;;-5.03;85.71;101692.84;5070795;28;20040;-79
2023/01/23 09:03:27;;;;;;;0.65;0.65;;;;;;;-5.03;85.61;101692.84;5070546;28;20980;-79
2023/01/23 09:05:54;;;;;;;0.70;0.70;;;;;;;-4.95;85.75;101703.00;5069643;28;20052;-80
2023/01/23 09:08:21;;;;;;;0.90;0.90;;;;;;;-4.93;85.35;101696.72;5052584;28;20048;-79
2023/01/23 09:10:48;;;;;;;0.80;0.80;;;;;;;-4.80;85.12;101695.13;5070162;28;20049;-81
2023/01/23 09:13:18;;;;;;;0.90;0.90;;;;;;;-4.75;85.21;101694.06;5069023;28;20041;-81
2023/01/23 09:15:45;;;;;;;0.60;0.60;;;;;;;-4.76;84.74;101697.59;5086002;28;20497;-80
2023/01/23 09:18:13;;;;;;;0.73;0.73;;;;;;;-4.72;84.31;101696.53;5065795;28;20087;-80
2023/01/23 09:20:40;;;;;;;0.80;0.80;;;;;;;-4.73;84.11;101686.94;5068473;28;20491;-79
2023/01/23 09:23:07;;;;;;;0.80;0.80;;;;;;;-4.61;84.10;101702.94;5061744;28;20048;-79
2023/01/23 09:25:39;;;;;;;0.93;0.93;;;;;;;-4.61;83.57;101694.16;5058344;28;20045;-81
2023/01/23 09:28:06;;;;;;;0.80;0.80;;;;;;;-4.55;83.34;101693.84;5080713;28;20052;-82
2023/01/23 09:30:34;;;;;;;0.70;0.70;;;;;;;-4.48;82.91;101694.34;5063335;28;20102;-82
2023/01/23 09:33:00;;;;;;;0.63;0.63;;;;;;;-4.43;82.85;101680.03;5065085;28;20060;-78
2023/01/23 09:35:28;;;;;;;0.82;0.82;;;;;;;-4.38;82.50;101675.34;5059801;28;20044;-80
2023/01/23 09:38:01;;;;;;;0.77;0.77;;;;;;;-4.41;82.12;101664.94;5070196;28;20059;-79
2023/01/23 09:40:37;;;;;;;0.90;0.90;;;;;;;-4.42;82.01;101665.06;5067571;28;20414;-81
2023/01/23 09:43:14;;;;;;;0.90;0.90;;;;;;;-4.44;81.96;101659.84;5077135;28;20053;-80
2023/01/23 09:45:46;;;;;;;0.82;0.82;;;;;;;-4.44;81.48;101654.56;4706980;28;9999649;-80
2023/01/23 09:48:20;;;;;;;0.77;0.77;;;;;;;-4.38;81.72;101659.53;5075747;28;20415;-81
2023/01/23 09:51:19;;;;;;;0.82;0.82;;;;;;;-4.20;81.55;101662.09;5053896;28;20049;-82
2023/01/23 09:53:47;;;;;;;0.75;0.75;;;;;;;-4.15;81.47;101654.78;5045299;28;20073;-81
2023/01/23 09:56:20;;;;;;;1.20;1.10;;;;;;;-4.04;81.01;101675.28;5056163;28;20055;-81
2023/01/23 09:59:17;;;;;;;0.75;0.75;;;;;;;-3.99;80.69;101660.06;5059812;28;20106;-80
2023/01/23 10:01:45;;;;;;;0.90;0.90;;;;;;;-3.85;80.58;101656.63;5044105;28;20110;-80
2023/01/23 10:04:13;;;;;;;0.80;0.80;;;;;;;-3.88;80.17;101657.66;5068317;28;20048;-81
2023/01/23 10:07:21;;;;;;;0.82;0.82;;;;;;;-3.81;79.81;101650.25;5055685;28;20080;-81
2023/01/23 10:10:06;;;;;;;0.82;0.82;;;;;;;-3.70;79.96;101645.19;5060089;28;20044;-79
2023/01/23 10:12:46;;;;;;;0.70;0.70;;;;;;;-3.55;79.75;101651.38;5066841;28;20080;-81
2023/01/23 10:15:18;;;;;;;1.00;1.00;;;;;;;-3.63;78.89;101643.91;5065814;28;20063;-82
2023/01/23 10:17:51;;;;;;;0.80;0.80;;;;;;;-3.53;79.10;101655.63;5060753;28;20048;-80
2023/01/23 10:20:24;;;;;;;0.95;0.95;;;;;;;-3.49;79.12;101659.81;5062414;28;20469;-81
2023/01/23 10:22:57;;;;;;;1.08;1.08;;;;;;;-3.54;78.72;101653.09;5043893;28;20149;-81
2023/01/23 10:25:27;;;;;;;0.70;0.70;;;;;;;-3.49;78.63;101653.69;5062347;28;20048;-82
2023/01/23 10:27:57;;;;;;;1.02;1.02;;;;;;;-3.44;78.64;101654.28;5067002;28;20049;-81
2023/01/23 10:30:24;;;;;;;1.10;1.10;;;;;;;-3.47;78.33;101657.06;5072033;28;20044;-81
2023/01/23 10:33:02;;;;;;;0.95;0.95;;;;;;;-3.46;78.51;101652.66;5063899;28;20051;-81
2023/01/23 10:35:49;;;;;;;0.80;0.80;;;;;;;-3.50;77.80;101666.00;5062427;28;20059;-82
2023/01/23 10:38:24;;;;;;;0.70;0.70;;;;;;;-3.67;78.00;101655.59;5072110;28;20070;-81
2023/01/23 10:43:37;;;;;;;0.70;0.70;;;;;;;-3.63;78.50;101649.19;5065453;28;20106;-82
2023/01/23 10:46:10;;;;;;;0.68;0.68;;;;;;;-3.51;78.71;101645.00;5062422;28;20064;-82
2023/01/23 10:48:41;;;;;;;0.98;0.98;;;;;;;-3.46;78.34;101637.66;5052294;28;20144;-81
2023/01/23 10:51:45;;;;;;;0.90;0.90;;;;;;;-3.44;78.46;101642.84;5045986;28;20514;-81
2023/01/23 10:54:19;;;;;;;0.73;0.73;;;;;;;-3.43;78.36;101657.75;5029845;28;20527;-81
2023/01/23 10:57:07;;;;;;;0.98;0.98;;;;;;;-3.49;78.22;101651.91;5028355;28;20068;-80
2023/01/23 10:59:49;;;;;;;0.68;0.68;;;;;;;-3.60;78.17;101656.94;5029320;28;20080;-81
2023/01/23 11:02:32;;;;;;;0.63;0.63;;;;;;;-3.71;78.88;101651.44;5026514;28;20049;-82
2023/01/23 11:05:04;;;;;;;0.75;0.75;;;;;;;-3.82;79.39;101645.88;5024293;28;20122;-81
2023/01/23 11:07:36;;;;;;;0.85;0.85;;;;;;;-3.89;79.53;101650.69;5011851;28;20159;-82
2023/01/23 11:10:09;;;;;;;0.70;0.70;;;;;;;-3.88;79.88;101651.53;5029287;28;20160;-81
2023/01/23 11:12:47;;;;;;;0.80;0.80;;;;;;;-3.86;80.17;101641.75;5031184;28;20130;-81
2023/01/23 11:15:26;;;;;;;0.80;0.80;;;;;;;-3.88;79.86;101638.34;5005604;28;20076;-80
2023/01/23 11:17:58;;;;;;;1.00;1.00;;;;;;;-3.83;80.32;101644.19;5022872;28;20049;-81
2023/01/23 11:20:38;;;;;;;0.90;0.90;;;;;;;-3.81;80.13;101637.06;5016225;28;20652;-82
2023/01/23 11:23:14;;;;;;;0.85;0.85;;;;;;;-3.92;80.29;101635.88;5012806;28;20058;-81
2023/01/23 11:25:48;;;;;;;0.70;0.70;;;;;;;-3.95;80.49;101637.81;5011340;28;20042;-81
2023/01/23 11:28:29;;;;;;;0.80;0.80;;;;;;;-3.88;80.75;101646.25;5014686;28;20045;-80
2023/01/23 11:31:21;;;;;;;0.90;0.90;;;;;;;-3.86;80.64;101639.94;5078053;28;20079;-82
2023/01/23 11:34:10;;;;;;;0.75;0.75;;;;;;;-3.97;80.87;101637.94;5064261;28;20530;-81
2023/01/23 11:36:56;;;;;;;0.90;0.90;;;;;;;-4.04;81.25;101644.47;5068639;28;20049;-78
2023/01/23 11:39:31;;;;;;;0.80;0.80;;;;;;;-4.05;81.56;101640.16;5060868;28;20049;-81
2023/01/23 11:41:59;;;;;;;0.73;0.73;;;;;;;-4.03;81.71;101648.81;5071672;28;20056;-82
2023/01/23 11:44:26;;;;;;;0.90;0.90;;;;;;;-4.00;81.95;101643.38;5061319;28;20049;-81
2023/01/23 11:47:38;;;;;;;0.90;0.90;;;;;;;-3.89;81.89;101636.66;5063351;28;20406;-82
2023/01/23 11:50:17;;;;;;;0.77;0.77;;;;;;;-3.99;81.73;101631.88;5069311;28;20100;-81
2023/01/23 11:53:01;;;;;;;1.10;1.10;;;;;;;-4.07;82.18;101647.28;5067870;28;20068;-82
2023/01/23 11:55:53;;;;;;;0.90;0.90;;;;;;;-4.00;82.59;101640.75;5055369;28;20438;-81